sensor_id;sensor_type;location;lat;lon;timestamp;temperature;humidity
16479;DHT22;8350;52.316;10.530;2023-12-14T00:02:10;4.20;99.90
16479;DHT22;8350;52.316;10.530;2023-12-14T00:04:40;4.20;99.90
16479;DHT22;8350;52.316;10.530;2023-12-14T00:07:10;4.20;99.90
16479;DHT22;8350;52.316;10.530;2023-12-14T00:09:40;4.20;99.90
16479;DHT22;8350;52.316;10.530;2023-12-14T00:12:07;4.20;99.90
16479;DHT22;8350;52.316;10.530;2023-12-14T00:14:35;4.10;99.90
16479;DHT22;8350;52.316;10.530;2023-12-14T00:17:02;4.10;99.90
16479;DHT22;8350;52.316;10.530;2023-12-14T00:19:30;4.00;99.90
16479;DHT22;8350;52.316;10.530;2023-12-14T00:21:59;4.00;99.90
16479;DHT22;8350;52.316;10.530;2023-12-14T00:24:25;3.90;99.90
16479;DHT22;8350;52.316;10.530;2023-12-14T00:26:52;3.90;99.90
16479;DHT22;8350;52.316;10.530;2023-12-14T00:29:19;3.90;99.90
16479;DHT22;8350;52.316;10.530;2023-12-14T00:31:49;3.90;99.90
16479;DHT22;8350;52.316;10.530;2023-12-14T00:34:16;4.00;99.90
16479;DHT22;8350;52.316;10.530;2023-12-14T00:36:42;4.00;99.90
16479;DHT22;8350;52.316;10.530;2023-12-14T00:39:11;4.00;99.90
16479;DHT22;8350;52.316;10.530;2023-12-14T00:41:40;3.90;99.90
16479;DHT22;8350;52.316;10.530;2023-12-14T00:44:06;3.90;99.90
16479;DHT22;8350;52.316;10.530;2023-12-14T00:46:35;3.90;99.90
16479;DHT22;8350;52.316;10.530;2023-12-14T00:49:02;4.00;99.90
16479;DHT22;8350;52.316;10.530;2023-12-14T00:51:29;4.00;99.90
16479;DHT22;8350;52.316;10.530;2023-12-14T00:53:56;3.90;99.90
16479;DHT22;8350;52.316;10.530;2023-12-14T00:56:24;3.80;99.90
16479;DHT22;8350;52.316;10.530;2023-12-14T00:58:51;3.80;99.90
16479;DHT22;8350;52.316;10.530;2023-12-14T01:01:21;3.80;99.90
16479;DHT22;8350;52.316;10.530;2023-12-14T01:03:48;3.80;99.90
16479;DHT22;8350;52.316;10.530;2023-12-14T01:06:15;3.80;99.90
16479;DHT22;8350;52.316;10.530;2023-12-14T01:08:44;3.80;99.90
16479;DHT22;8350;52.316;10.530;2023-12-14T01:11:10;3.70;99.90
16479;DHT22;8350;52.316;10.530;2023-12-14T01:13:39;3.70;99.90
16479;DHT22;8350;52.316;10.530;2023-12-14T01:16:06;3.70;99.90
16479;DHT22;8350;52.316;10.530;2023-12-14T01:18:33;3.70;99.90
16479;DHT22;8350;52.316;10.530;2023-12-14T01:21:01;3.70;99.90
16479;DHT22;8350;52.316;10.530;2023-12-14T01:23:27;3.70;99.90
16479;DHT22;8350;52.316;10.530;2023-12-14T01:25:54;3.70;99.90
16479;DHT22;8350;52.316;10.530;2023-12-14T01:28:21;3.70;99.90
16479;DHT22;8350;52.316;10.530;2023-12-14T01:30:49;3.70;99.90
16479;DHT22;8350;52.316;10.530;2023-12-14T01:33:16;3.70;99.90
16479;DHT22;8350;52.316;10.530;2023-12-14T01:35:43;3.70;99.90
16479;DHT22;8350;52.316;10.530;2023-12-14T01:38:11;3.70;99.90
16479;DHT22;8350;52.316;10.530;2023-12-14T01:40:38;3.60;99.90
16479;DHT22;8350;52.316;10.530;2023-12-14T01:43:10;3.60;99.90
16479;DHT22;8350;52.316;10.530;2023-12-14T01:45:37;3.60;99.90
16479;DHT22;8350;52.316;10.530;2023-12-14T01:48:07;3.70;99.90
16479;DHT22;8350;52.316;10.530;2023-12-14T01:50:34;3.70;99.90
16479;DHT22;8350;52.316;10.530;2023-12-14T01:53:01;3.70;99.90
16479;DHT22;8350;52.316;10.530;2023-12-14T01:55:28;3.70;99.90
16479;DHT22;8350;52.316;10.530;2023-12-14T01:58:15;3.70;99.90
16479;DHT22;8350;52.316;10.530;2023-12-14T02:00:45;3.70;99.90
16479;DHT22;8350;52.316;10.530;2023-12-14T02:03:15;3.60;99.90
16479;DHT22;8350;52.316;10.530;2023-12-14T02:05:41;3.70;99.90
16479;DHT22;8350;52.316;10.530;2023-12-14T02:08:08;3.70;99.90
16479;DHT22;8350;52.316;10.530;2023-12-14T02:10:35;3.60;99.90
16479;DHT22;8350;52.316;10.530;2023-12-14T02:13:05;3.60;99.90
16479;DHT22;8350;52.316;10.530;2023-12-14T02:15:33;3.60;99.90
16479;DHT22;8350;52.316;10.530;2023-12-14T02:18:00;3.60;99.90
16479;DHT22;8350;52.316;10.530;2023-12-14T02:20:28;3.60;99.90
16479;DHT22;8350;52.316;10.530;2023-12-14T02:22:58;3.50;99.90
16479;DHT22;8350;52.316;10.530;2023-12-14T02:25:24;3.60;99.90
16479;DHT22;8350;52.316;10.530;2023-12-14T02:27:51;3.50;99.90
16479;DHT22;8350;52.316;10.530;2023-12-14T02:30:18;3.50;99.90
16479;DHT22;8350;52.316;10.530;2023-12-14T02:32:45;3.50;99.90
16479;DHT22;8350;52.316;10.530;2023-12-14T02:35:12;3.50;99.90
16479;DHT22;8350;52.316;10.530;2023-12-14T02:37:39;3.40;99.90
16479;DHT22;8350;52.316;10.530;2023-12-14T02:40:11;3.40;99.90
16479;DHT22;8350;52.316;10.530;2023-12-14T02:42:38;3.40;99.90
16479;DHT22;8350;52.316;10.530;2023-12-14T02:45:05;3.40;99.90
16479;DHT22;8350;52.316;10.530;2023-12-14T02:47:32;3.50;99.90
16479;DHT22;8350;52.316;10.530;2023-12-14T02:49:59;3.40;99.90
16479;DHT22;8350;52.316;10.530;2023-12-14T02:52:26;3.40;99.90
16479;DHT22;8350;52.316;10.530;2023-12-14T02:54:53;3.30;99.90
16479;DHT22;8350;52.316;10.530;2023-12-14T02:57:22;3.40;99.90
16479;DHT22;8350;52.316;10.530;2023-12-14T02:59:58;3.30;99.90
16479;DHT22;8350;52.316;10.530;2023-12-14T03:02:25;3.30;99.90
16479;DHT22;8350;52.316;10.530;2023-12-14T03:04:51;3.40;99.90
16479;DHT22;8350;52.316;10.530;2023-12-14T03:07:18;3.40;99.90
16479;DHT22;8350;52.316;10.530;2023-12-14T03:09:45;3.30;99.90
16479;DHT22;8350;52.316;10.530;2023-12-14T03:12:12;3.30;99.90
16479;DHT22;8350;52.316;10.530;2023-12-14T03:14:40;3.30;99.90
16479;DHT22;8350;52.316;10.530;2023-12-14T03:17:10;3.30;99.90
16479;DHT22;8350;52.316;10.530;2023-12-14T03:19:42;3.40;99.90
16479;DHT22;8350;52.316;10.530;2023-12-14T03:22:09;3.30;99.90
16479;DHT22;8350;52.316;10.530;2023-12-14T03:24:36;3.30;99.90
16479;DHT22;8350;52.316;10.530;2023-12-14T03:27:04;3.30;99.90
16479;DHT22;8350;52.316;10.530;2023-12-14T03:29:31;3.30;99.90
16479;DHT22;8350;52.316;10.530;2023-12-14T03:32:00;3.30;99.90
16479;DHT22;8350;52.316;10.530;2023-12-14T03:34:26;3.20;99.90
16479;DHT22;8350;52.316;10.530;2023-12-14T03:36:53;3.20;99.90
16479;DHT22;8350;52.316;10.530;2023-12-14T03:39:20;3.20;99.90
16479;DHT22;8350;52.316;10.530;2023-12-14T03:41:48;3.20;99.90
16479;DHT22;8350;52.316;10.530;2023-12-14T03:44:15;3.20;99.90
16479;DHT22;8350;52.316;10.530;2023-12-14T03:46:42;3.20;99.90
16479;DHT22;8350;52.316;10.530;2023-12-14T03:49:10;3.20;99.90
16479;DHT22;8350;52.316;10.530;2023-12-14T03:51:37;3.20;99.90
16479;DHT22;8350;52.316;10.530;2023-12-14T03:54:03;3.20;99.90
16479;DHT22;8350;52.316;10.530;2023-12-14T03:56:30;3.20;99.90
16479;DHT22;8350;52.316;10.530;2023-12-14T03:58:57;3.20;99.90
16479;DHT22;8350;52.316;10.530;2023-12-14T04:01:24;3.20;99.90
16479;DHT22;8350;52.316;10.530;2023-12-14T04:03:51;3.10;99.90
16479;DHT22;8350;52.316;10.530;2023-12-14T04:06:19;3.20;99.90
16479;DHT22;8350;52.316;10.530;2023-12-14T04:08:46;3.20;99.90
16479;DHT22;8350;52.316;10.530;2023-12-14T04:11:14;3.20;99.90
16479;DHT22;8350;52.316;10.530;2023-12-14T04:13:41;3.20;99.90
16479;DHT22;8350;52.316;10.530;2023-12-14T04:16:08;3.20;99.90
16479;DHT22;8350;52.316;10.530;2023-12-14T04:18:35;3.20;99.90
16479;DHT22;8350;52.316;10.530;2023-12-14T04:21:03;3.20;99.90
16479;DHT22;8350;52.316;10.530;2023-12-14T04:23:32;3.20;99.90
16479;DHT22;8350;52.316;10.530;2023-12-14T04:25:59;3.20;99.90
16479;DHT22;8350;52.316;10.530;2023-12-14T04:28:25;3.20;99.90
16479;DHT22;8350;52.316;10.530;2023-12-14T04:30:52;3.20;99.90
16479;DHT22;8350;52.316;10.530;2023-12-14T04:33:19;3.10;99.90
16479;DHT22;8350;52.316;10.530;2023-12-14T04:35:46;3.10;99.90
16479;DHT22;8350;52.316;10.530;2023-12-14T04:38:13;3.00;99.90
16479;DHT22;8350;52.316;10.530;2023-12-14T04:40:41;3.10;99.90
16479;DHT22;8350;52.316;10.530;2023-12-14T04:43:08;3.10;99.90
16479;DHT22;8350;52.316;10.530;2023-12-14T04:45:35;3.10;99.90
16479;DHT22;8350;52.316;10.530;2023-12-14T04:48:02;3.10;99.90
16479;DHT22;8350;52.316;10.530;2023-12-14T04:50:29;3.10;99.90
16479;DHT22;8350;52.316;10.530;2023-12-14T04:52:56;3.20;99.90
16479;DHT22;8350;52.316;10.530;2023-12-14T04:55:24;3.20;99.90
16479;DHT22;8350;52.316;10.530;2023-12-14T04:57:52;3.20;99.90
16479;DHT22;8350;52.316;10.530;2023-12-14T05:00:19;3.20;99.90
16479;DHT22;8350;52.316;10.530;2023-12-14T05:02:49;3.20;99.90
16479;DHT22;8350;52.316;10.530;2023-12-14T05:05:19;3.20;99.90
16479;DHT22;8350;52.316;10.530;2023-12-14T05:07:46;3.20;99.90
16479;DHT22;8350;52.316;10.530;2023-12-14T05:10:12;3.20;99.90
16479;DHT22;8350;52.316;10.530;2023-12-14T05:12:39;3.20;99.90
16479;DHT22;8350;52.316;10.530;2023-12-14T05:15:09;3.20;99.90
16479;DHT22;8350;52.316;10.530;2023-12-14T05:17:36;3.20;99.90
16479;DHT22;8350;52.316;10.530;2023-12-14T05:20:04;3.20;99.90
16479;DHT22;8350;52.316;10.530;2023-12-14T05:22:34;3.20;99.90
16479;DHT22;8350;52.316;10.530;2023-12-14T05:25:01;3.20;99.90
16479;DHT22;8350;52.316;10.530;2023-12-14T05:27:28;3.20;99.90
16479;DHT22;8350;52.316;10.530;2023-12-14T05:29:54;3.20;99.90
16479;DHT22;8350;52.316;10.530;2023-12-14T05:32:23;3.20;99.90
16479;DHT22;8350;52.316;10.530;2023-12-14T05:34:57;3.20;99.90
16479;DHT22;8350;52.316;10.530;2023-12-14T05:37:25;3.20;99.90
16479;DHT22;8350;52.316;10.530;2023-12-14T05:39:52;3.20;99.90
16479;DHT22;8350;52.316;10.530;2023-12-14T05:42:21;3.20;99.90
16479;DHT22;8350;52.316;10.530;2023-12-14T05:44:48;3.20;99.90
16479;DHT22;8350;52.316;10.530;2023-12-14T05:47:15;3.20;99.90
16479;DHT22;8350;52.316;10.530;2023-12-14T05:49:43;3.10;99.90
16479;DHT22;8350;52.316;10.530;2023-12-14T05:52:11;3.20;99.90
16479;DHT22;8350;52.316;10.530;2023-12-14T05:54:38;3.20;99.90
16479;DHT22;8350;52.316;10.530;2023-12-14T05:57:05;3.20;99.90
16479;DHT22;8350;52.316;10.530;2023-12-14T05:59:35;3.30;99.90
16479;DHT22;8350;52.316;10.530;2023-12-14T06:02:02;3.40;99.90
16479;DHT22;8350;52.316;10.530;2023-12-14T06:04:29;3.30;99.90
16479;DHT22;8350;52.316;10.530;2023-12-14T06:06:57;3.30;99.90
16479;DHT22;8350;52.316;10.530;2023-12-14T06:09:25;3.20;99.90
16479;DHT22;8350;52.316;10.530;2023-12-14T06:11:59;3.20;99.90
16479;DHT22;8350;52.316;10.530;2023-12-14T06:14:31;3.20;99.90
16479;DHT22;8350;52.316;10.530;2023-12-14T06:17:17;3.10;99.90
16479;DHT22;8350;52.316;10.530;2023-12-14T06:19:46;3.20;99.90
16479;DHT22;8350;52.316;10.530;2023-12-14T06:22:14;3.10;99.90
16479;DHT22;8350;52.316;10.530;2023-12-14T06:24:43;3.20;99.90
16479;DHT22;8350;52.316;10.530;2023-12-14T06:27:10;3.20;99.90
16479;DHT22;8350;52.316;10.530;2023-12-14T06:29:37;3.20;99.90
16479;DHT22;8350;52.316;10.530;2023-12-14T06:32:04;3.20;99.90
16479;DHT22;8350;52.316;10.530;2023-12-14T06:34:31;3.20;99.90
16479;DHT22;8350;52.316;10.530;2023-12-14T06:36:57;3.30;99.90
16479;DHT22;8350;52.316;10.530;2023-12-14T06:39:30;3.30;99.90
16479;DHT22;8350;52.316;10.530;2023-12-14T06:41:57;3.20;99.90
16479;DHT22;8350;52.316;10.530;2023-12-14T06:44:24;3.10;99.90
16479;DHT22;8350;52.316;10.530;2023-12-14T06:46:58;3.20;99.90
16479;DHT22;8350;52.316;10.530;2023-12-14T06:49:27;3.20;99.90
16479;DHT22;8350;52.316;10.530;2023-12-14T06:51:54;3.20;99.90
16479;DHT22;8350;52.316;10.530;2023-12-14T06:54:22;3.20;99.90
16479;DHT22;8350;52.316;10.530;2023-12-14T06:56:50;3.10;99.90
16479;DHT22;8350;52.316;10.530;2023-12-14T06:59:21;3.10;99.90
16479;DHT22;8350;52.316;10.530;2023-12-14T07:01:48;3.10;99.90
16479;DHT22;8350;52.316;10.530;2023-12-14T07:04:15;3.10;99.90
16479;DHT22;8350;52.316;10.530;2023-12-14T07:06:50;3.20;99.90
16479;DHT22;8350;52.316;10.530;2023-12-14T07:09:17;3.10;99.90
16479;DHT22;8350;52.316;10.530;2023-12-14T07:11:44;3.10;99.90
16479;DHT22;8350;52.316;10.530;2023-12-14T07:14:13;3.10;99.90
16479;DHT22;8350;52.316;10.530;2023-12-14T07:16:41;3.10;99.90
16479;DHT22;8350;52.316;10.530;2023-12-14T07:19:08;3.10;99.90
16479;DHT22;8350;52.316;10.530;2023-12-14T07:21:36;3.10;99.90
16479;DHT22;8350;52.316;10.530;2023-12-14T07:24:05;3.10;99.90
16479;DHT22;8350;52.316;10.530;2023-12-14T07:26:32;3.10;99.90
16479;DHT22;8350;52.316;10.530;2023-12-14T07:28:59;3.10;99.90
16479;DHT22;8350;52.316;10.530;2023-12-14T07:31:28;3.10;99.90
16479;DHT22;8350;52.316;10.530;2023-12-14T07:33:55;3.10;99.90
16479;DHT22;8350;52.316;10.530;2023-12-14T07:36:24;3.10;99.90
16479;DHT22;8350;52.316;10.530;2023-12-14T07:38:51;3.10;99.90
16479;DHT22;8350;52.316;10.530;2023-12-14T07:41:19;3.10;99.90
16479;DHT22;8350;52.316;10.530;2023-12-14T07:43:48;3.10;99.90
16479;DHT22;8350;52.316;10.530;2023-12-14T07:46:15;3.20;99.90
16479;DHT22;8350;52.316;10.530;2023-12-14T07:48:44;3.20;99.90
16479;DHT22;8350;52.316;10.530;2023-12-14T07:51:11;3.20;99.90
16479;DHT22;8350;52.316;10.530;2023-12-14T07:53:38;3.20;99.90
16479;DHT22;8350;52.316;10.530;2023-12-14T07:56:07;3.20;99.90
16479;DHT22;8350;52.316;10.530;2023-12-14T07:58:36;3.20;99.90
16479;DHT22;8350;52.316;10.530;2023-12-14T08:01:04;3.20;99.90
16479;DHT22;8350;52.316;10.530;2023-12-14T08:03:30;3.20;99.90
16479;DHT22;8350;52.316;10.530;2023-12-14T08:06:00;3.20;99.90
16479;DHT22;8350;52.316;10.530;2023-12-14T08:08:27;3.20;99.90
16479;DHT22;8350;52.316;10.530;2023-12-14T08:10:54;3.20;99.90
16479;DHT22;8350;52.316;10.530;2023-12-14T08:13:20;3.20;99.90
16479;DHT22;8350;52.316;10.530;2023-12-14T08:15:47;3.20;99.90
16479;DHT22;8350;52.316;10.530;2023-12-14T08:18:14;3.20;99.90
16479;DHT22;8350;52.316;10.530;2023-12-14T08:20:41;3.20;99.90
16479;DHT22;8350;52.316;10.530;2023-12-14T08:23:13;3.20;99.90
16479;DHT22;8350;52.316;10.530;2023-12-14T08:25:40;3.30;99.90
16479;DHT22;8350;52.316;10.530;2023-12-14T08:28:09;3.20;99.90
16479;DHT22;8350;52.316;10.530;2023-12-14T08:30:40;3.30;99.90
16479;DHT22;8350;52.316;10.530;2023-12-14T08:33:07;3.20;99.90
16479;DHT22;8350;52.316;10.530;2023-12-14T08:35:36;3.30;99.90
16479;DHT22;8350;52.316;10.530;2023-12-14T08:38:05;3.20;99.90
16479;DHT22;8350;52.316;10.530;2023-12-14T08:40:33;3.20;99.90
16479;DHT22;8350;52.316;10.530;2023-12-14T08:43:00;3.20;99.90
16479;DHT22;8350;52.316;10.530;2023-12-14T08:45:28;3.30;99.90
16479;DHT22;8350;52.316;10.530;2023-12-14T08:47:55;3.30;99.90
16479;DHT22;8350;52.316;10.530;2023-12-14T08:50:25;3.30;99.90
16479;DHT22;8350;52.316;10.530;2023-12-14T08:52:52;3.40;99.90
16479;DHT22;8350;52.316;10.530;2023-12-14T08:55:19;3.40;99.90
16479;DHT22;8350;52.316;10.530;2023-12-14T08:57:58;3.40;99.90
16479;DHT22;8350;52.316;10.530;2023-12-14T09:00:25;3.40;99.90
16479;DHT22;8350;52.316;10.530;2023-12-14T09:02:52;3.40;99.90
16479;DHT22;8350;52.316;10.530;2023-12-14T09:05:19;3.40;99.90
16479;DHT22;8350;52.316;10.530;2023-12-14T09:07:46;3.50;99.90
16479;DHT22;8350;52.316;10.530;2023-12-14T09:10:13;3.60;99.90
16479;DHT22;8350;52.316;10.530;2023-12-14T09:12:40;3.50;99.90
16479;DHT22;8350;52.316;10.530;2023-12-14T09:15:10;3.50;99.90
16479;DHT22;8350;52.316;10.530;2023-12-14T09:17:36;3.40;99.90
16479;DHT22;8350;52.316;10.530;2023-12-14T09:20:04;3.40;99.90
16479;DHT22;8350;52.316;10.530;2023-12-14T09:22:32;3.50;99.90
16479;DHT22;8350;52.316;10.530;2023-12-14T09:25:02;3.50;99.90
16479;DHT22;8350;52.316;10.530;2023-12-14T09:27:29;3.50;99.90
16479;DHT22;8350;52.316;10.530;2023-12-14T09:29:56;3.50;99.90
16479;DHT22;8350;52.316;10.530;2023-12-14T09:32:24;3.50;99.90
16479;DHT22;8350;52.316;10.530;2023-12-14T09:34:51;3.50;99.90
16479;DHT22;8350;52.316;10.530;2023-12-14T09:37:22;3.40;99.90
16479;DHT22;8350;52.316;10.530;2023-12-14T09:39:50;3.40;99.90
16479;DHT22;8350;52.316;10.530;2023-12-14T09:42:21;3.40;99.90
16479;DHT22;8350;52.316;10.530;2023-12-14T09:44:48;3.50;99.90
16479;DHT22;8350;52.316;10.530;2023-12-14T09:47:16;3.60;99.90
16479;DHT22;8350;52.316;10.530;2023-12-14T09:49:45;3.60;99.90
16479;DHT22;8350;52.316;10.530;2023-12-14T09:52:12;3.70;99.90
16479;DHT22;8350;52.316;10.530;2023-12-14T09:54:40;3.60;99.90
16479;DHT22;8350;52.316;10.530;2023-12-14T09:57:07;3.60;99.90
16479;DHT22;8350;52.316;10.530;2023-12-14T09:59:34;3.60;99.90
16479;DHT22;8350;52.316;10.530;2023-12-14T10:02:09;3.50;99.90
16479;DHT22;8350;52.316;10.530;2023-12-14T10:04:37;3.50;99.90
16479;DHT22;8350;52.316;10.530;2023-12-14T10:07:05;3.50;99.90
16479;DHT22;8350;52.316;10.530;2023-12-14T10:09:33;3.60;99.90
16479;DHT22;8350;52.316;10.530;2023-12-14T10:12:05;3.50;99.90
16479;DHT22;8350;52.316;10.530;2023-12-14T10:14:32;3.50;99.90
16479;DHT22;8350;52.316;10.530;2023-12-14T10:16:59;3.50;99.90
16479;DHT22;8350;52.316;10.530;2023-12-14T10:19:42;3.50;99.90
16479;DHT22;8350;52.316;10.530;2023-12-14T10:22:10;3.50;99.90
16479;DHT22;8350;52.316;10.530;2023-12-14T10:24:38;3.50;99.90
16479;DHT22;8350;52.316;10.530;2023-12-14T10:27:06;3.50;99.90
16479;DHT22;8350;52.316;10.530;2023-12-14T10:29:34;3.50;99.90
16479;DHT22;8350;52.316;10.530;2023-12-14T10:32:03;3.50;99.90
16479;DHT22;8350;52.316;10.530;2023-12-14T10:34:32;3.60;99.90
16479;DHT22;8350;52.316;10.530;2023-12-14T10:36:59;3.60;99.90
16479;DHT22;8350;52.316;10.530;2023-12-14T10:39:30;3.70;99.90
16479;DHT22;8350;52.316;10.530;2023-12-14T10:41:58;3.60;99.90
16479;DHT22;8350;52.316;10.530;2023-12-14T10:44:30;3.60;99.90
16479;DHT22;8350;52.316;10.530;2023-12-14T10:47:02;3.60;99.90
16479;DHT22;8350;52.316;10.530;2023-12-14T10:49:31;3.60;99.90
16479;DHT22;8350;52.316;10.530;2023-12-14T10:52:00;3.60;99.90
16479;DHT22;8350;52.316;10.530;2023-12-14T10:54:32;3.60;99.90
16479;DHT22;8350;52.316;10.530;2023-12-14T10:57:01;3.60;99.90
16479;DHT22;8350;52.316;10.530;2023-12-14T10:59:32;3.60;99.90
16479;DHT22;8350;52.316;10.530;2023-12-14T11:02:07;3.70;99.90
16479;DHT22;8350;52.316;10.530;2023-12-14T11:04:54;3.60;99.90
16479;DHT22;8350;52.316;10.530;2023-12-14T11:07:42;3.60;99.90
16479;DHT22;8350;52.316;10.530;2023-12-14T11:10:11;3.60;99.90
16479;DHT22;8350;52.316;10.530;2023-12-14T11:12:50;3.80;99.90
16479;DHT22;8350;52.316;10.530;2023-12-14T11:15:18;3.70;99.90
16479;DHT22;8350;52.316;10.530;2023-12-14T11:18:22;3.70;99.90
16479;DHT22;8350;52.316;10.530;2023-12-14T11:20:51;3.70;99.90
16479;DHT22;8350;52.316;10.530;2023-12-14T11:23:29;3.70;99.90
16479;DHT22;8350;52.316;10.530;2023-12-14T11:26:00;3.70;99.90
16479;DHT22;8350;52.316;10.530;2023-12-14T11:28:29;3.70;99.90
16479;DHT22;8350;52.316;10.530;2023-12-14T11:30:56;3.70;99.90
16479;DHT22;8350;52.316;10.530;2023-12-14T11:33:32;3.70;99.90
16479;DHT22;8350;52.316;10.530;2023-12-14T11:36:00;3.70;99.90
16479;DHT22;8350;52.316;10.530;2023-12-14T11:38:29;3.70;99.90
16479;DHT22;8350;52.316;10.530;2023-12-14T11:40:57;3.80;99.90
16479;DHT22;8350;52.316;10.530;2023-12-14T11:43:24;3.70;99.90
16479;DHT22;8350;52.316;10.530;2023-12-14T11:45:52;3.70;99.90
16479;DHT22;8350;52.316;10.530;2023-12-14T11:48:21;3.80;99.90
16479;DHT22;8350;52.316;10.530;2023-12-14T11:50:48;3.80;99.90
16479;DHT22;8350;52.316;10.530;2023-12-14T11:53:15;3.80;99.90
16479;DHT22;8350;52.316;10.530;2023-12-14T11:55:42;3.80;99.90
16479;DHT22;8350;52.316;10.530;2023-12-14T12:01:19;3.70;99.90
16479;DHT22;8350;52.316;10.530;2023-12-14T12:03:48;3.80;99.90
16479;DHT22;8350;52.316;10.530;2023-12-14T12:06:22;3.80;99.90
16479;DHT22;8350;52.316;10.530;2023-12-14T12:08:50;3.80;99.90
16479;DHT22;8350;52.316;10.530;2023-12-14T12:11:21;3.90;99.90
16479;DHT22;8350;52.316;10.530;2023-12-14T12:13:50;3.80;99.90
16479;DHT22;8350;52.316;10.530;2023-12-14T12:16:19;3.80;99.90
16479;DHT22;8350;52.316;10.530;2023-12-14T12:18:46;3.80;99.90
16479;DHT22;8350;52.316;10.530;2023-12-14T12:21:13;3.80;99.90
16479;DHT22;8350;52.316;10.530;2023-12-14T12:23:40;3.80;99.90
16479;DHT22;8350;52.316;10.530;2023-12-14T12:26:11;3.90;99.90
16479;DHT22;8350;52.316;10.530;2023-12-14T12:28:38;3.80;99.90
16479;DHT22;8350;52.316;10.530;2023-12-14T12:31:05;3.90;99.90
16479;DHT22;8350;52.316;10.530;2023-12-14T12:33:34;3.80;99.90
16479;DHT22;8350;52.316;10.530;2023-12-14T12:36:06;3.80;99.90
16479;DHT22;8350;52.316;10.530;2023-12-14T12:38:35;3.80;99.90
16479;DHT22;8350;52.316;10.530;2023-12-14T12:41:05;3.80;99.90
16479;DHT22;8350;52.316;10.530;2023-12-14T12:43:32;3.80;99.90
16479;DHT22;8350;52.316;10.530;2023-12-14T12:45:59;3.80;99.90
16479;DHT22;8350;52.316;10.530;2023-12-14T12:48:29;3.80;99.90
16479;DHT22;8350;52.316;10.530;2023-12-14T12:50:57;3.80;99.90
16479;DHT22;8350;52.316;10.530;2023-12-14T12:53:30;3.80;99.90
16479;DHT22;8350;52.316;10.530;2023-12-14T12:55:58;3.80;99.90
16479;DHT22;8350;52.316;10.530;2023-12-14T12:58:25;3.80;99.90
16479;DHT22;8350;52.316;10.530;2023-12-14T13:00:51;3.80;99.90
16479;DHT22;8350;52.316;10.530;2023-12-14T13:03:18;3.80;99.90
16479;DHT22;8350;52.316;10.530;2023-12-14T13:05:45;3.80;99.90
16479;DHT22;8350;52.316;10.530;2023-12-14T13:08:17;3.80;99.90
16479;DHT22;8350;52.316;10.530;2023-12-14T13:10:44;3.80;99.90
16479;DHT22;8350;52.316;10.530;2023-12-14T13:13:12;3.80;99.90
16479;DHT22;8350;52.316;10.530;2023-12-14T13:15:39;3.80;99.90
16479;DHT22;8350;52.316;10.530;2023-12-14T13:18:05;3.80;99.90
16479;DHT22;8350;52.316;10.530;2023-12-14T13:20:32;3.80;99.90
16479;DHT22;8350;52.316;10.530;2023-12-14T13:23:02;3.80;99.90
16479;DHT22;8350;52.316;10.530;2023-12-14T13:25:30;3.80;99.90
16479;DHT22;8350;52.316;10.530;2023-12-14T13:27:59;3.80;99.90
16479;DHT22;8350;52.316;10.530;2023-12-14T13:30:27;3.80;99.90
16479;DHT22;8350;52.316;10.530;2023-12-14T13:32:55;3.90;99.90
16479;DHT22;8350;52.316;10.530;2023-12-14T13:35:21;3.80;99.90
16479;DHT22;8350;52.316;10.530;2023-12-14T13:37:50;3.80;99.90
16479;DHT22;8350;52.316;10.530;2023-12-14T13:40:16;3.80;99.90
16479;DHT22;8350;52.316;10.530;2023-12-14T13:42:45;3.80;99.90
16479;DHT22;8350;52.316;10.530;2023-12-14T13:45:13;3.90;99.90
16479;DHT22;8350;52.316;10.530;2023-12-14T13:47:40;3.80;99.90
16479;DHT22;8350;52.316;10.530;2023-12-14T13:50:14;3.80;99.90
16479;DHT22;8350;52.316;10.530;2023-12-14T13:52:41;3.90;99.90
16479;DHT22;8350;52.316;10.530;2023-12-14T13:55:09;3.90;99.90
16479;DHT22;8350;52.316;10.530;2023-12-14T13:57:36;3.80;99.90
16479;DHT22;8350;52.316;10.530;2023-12-14T14:00:06;3.80;99.90
16479;DHT22;8350;52.316;10.530;2023-12-14T14:02:34;3.80;99.90
16479;DHT22;8350;52.316;10.530;2023-12-14T14:05:01;3.80;99.90
16479;DHT22;8350;52.316;10.530;2023-12-14T14:07:40;3.80;99.90
16479;DHT22;8350;52.316;10.530;2023-12-14T14:10:07;3.80;99.90
16479;DHT22;8350;52.316;10.530;2023-12-14T14:12:35;3.80;99.90
16479;DHT22;8350;52.316;10.530;2023-12-14T14:15:04;3.80;99.90
16479;DHT22;8350;52.316;10.530;2023-12-14T14:17:32;3.70;99.90
16479;DHT22;8350;52.316;10.530;2023-12-14T14:19:59;3.80;99.90
16479;DHT22;8350;52.316;10.530;2023-12-14T14:22:26;3.80;99.90
16479;DHT22;8350;52.316;10.530;2023-12-14T14:24:53;3.70;99.90
16479;DHT22;8350;52.316;10.530;2023-12-14T14:27:19;3.80;99.90
16479;DHT22;8350;52.316;10.530;2023-12-14T14:29:47;3.80;99.90
16479;DHT22;8350;52.316;10.530;2023-12-14T14:32:15;3.80;99.90
16479;DHT22;8350;52.316;10.530;2023-12-14T14:34:42;3.80;99.90
16479;DHT22;8350;52.316;10.530;2023-12-14T14:37:09;3.80;99.90
16479;DHT22;8350;52.316;10.530;2023-12-14T14:39:36;3.90;99.90
16479;DHT22;8350;52.316;10.530;2023-12-14T14:42:05;3.80;99.90
16479;DHT22;8350;52.316;10.530;2023-12-14T14:44:32;3.80;99.90
16479;DHT22;8350;52.316;10.530;2023-12-14T14:46:58;3.90;99.90
16479;DHT22;8350;52.316;10.530;2023-12-14T14:49:31;3.90;99.90
16479;DHT22;8350;52.316;10.530;2023-12-14T14:51:58;3.90;99.90
16479;DHT22;8350;52.316;10.530;2023-12-14T14:54:24;3.90;99.90
16479;DHT22;8350;52.316;10.530;2023-12-14T14:56:51;3.90;99.90
16479;DHT22;8350;52.316;10.530;2023-12-14T14:59:21;3.90;99.90
16479;DHT22;8350;52.316;10.530;2023-12-14T15:01:51;3.90;99.90
16479;DHT22;8350;52.316;10.530;2023-12-14T15:04:19;4.00;99.90
16479;DHT22;8350;52.316;10.530;2023-12-14T15:06:50;4.00;99.90
16479;DHT22;8350;52.316;10.530;2023-12-14T15:09:17;3.90;99.90
16479;DHT22;8350;52.316;10.530;2023-12-14T15:11:44;3.90;99.90
16479;DHT22;8350;52.316;10.530;2023-12-14T15:14:11;3.90;99.90
16479;DHT22;8350;52.316;10.530;2023-12-14T15:16:40;3.90;99.90
16479;DHT22;8350;52.316;10.530;2023-12-14T15:19:07;3.90;99.90
16479;DHT22;8350;52.316;10.530;2023-12-14T15:21:45;3.90;99.90
16479;DHT22;8350;52.316;10.530;2023-12-14T15:24:15;3.90;99.90
16479;DHT22;8350;52.316;10.530;2023-12-14T15:26:47;3.90;99.90
16479;DHT22;8350;52.316;10.530;2023-12-14T15:29:16;3.90;99.90
16479;DHT22;8350;52.316;10.530;2023-12-14T15:31:43;3.90;99.90
16479;DHT22;8350;52.316;10.530;2023-12-14T15:34:10;3.90;99.90
16479;DHT22;8350;52.316;10.530;2023-12-14T15:36:39;3.90;99.90
16479;DHT22;8350;52.316;10.530;2023-12-14T15:39:06;3.90;99.90
16479;DHT22;8350;52.316;10.530;2023-12-14T15:41:35;3.90;99.90
16479;DHT22;8350;52.316;10.530;2023-12-14T15:44:02;3.90;99.90
16479;DHT22;8350;52.316;10.530;2023-12-14T15:46:28;3.90;99.90
16479;DHT22;8350;52.316;10.530;2023-12-14T15:48:55;3.90;99.90
16479;DHT22;8350;52.316;10.530;2023-12-14T15:51:22;3.90;99.90
16479;DHT22;8350;52.316;10.530;2023-12-14T15:53:49;3.90;99.90
16479;DHT22;8350;52.316;10.530;2023-12-14T15:56:16;3.90;99.90